sensor_id;sensor_type;location;lat;lon;timestamp;P1;durP1;ratioP1;P2;durP2;ratioP2
2416;SDS011;1219;48.736;9.330;2023-03-14T00:01:10;0.93;;;0.93;;
2416;SDS011;1219;48.736;9.330;2023-03-14T00:03:37;1.20;;;1.03;;
2416;SDS011;1219;48.736;9.330;2023-03-14T00:06:03;1.10;;;1.00;;
2416;SDS011;1219;48.736;9.330;2023-03-14T00:08:30;1.10;;;1.00;;
2416;SDS011;1219;48.736;9.330;2023-03-14T00:10:56;1.00;;;0.97;;
2416;SDS011;1219;48.736;9.330;2023-03-14T00:13:24;0.90;;;0.90;;
2416;SDS011;1219;48.736;9.330;2023-03-14T00:15:50;1.30;;;1.20;;
2416;SDS011;1219;48.736;9.330;2023-03-14T00:18:16;1.10;;;1.00;;
2416;SDS011;1219;48.736;9.330;2023-03-14T00:20:44;0.90;;;0.90;;
2416;SDS011;1219;48.736;9.330;2023-03-14T00:23:10;1.00;;;1.00;;
2416;SDS011;1219;48.736;9.330;2023-03-14T00:25:36;0.90;;;0.90;;
2416;SDS011;1219;48.736;9.330;2023-03-14T00:28:02;1.37;;;1.27;;
2416;SDS011;1219;48.736;9.330;2023-03-14T00:30:28;1.23;;;1.07;;
2416;SDS011;1219;48.736;9.330;2023-03-14T00:32:54;1.93;;;1.00;;
2416;SDS011;1219;48.736;9.330;2023-03-14T00:35:20;0.80;;;0.80;;
2416;SDS011;1219;48.736;9.330;2023-03-14T00:37:46;1.17;;;1.00;;
2416;SDS011;1219;48.736;9.330;2023-03-14T00:40:12;2.53;;;1.20;;
2416;SDS011;1219;48.736;9.330;2023-03-14T00:42:38;0.90;;;0.90;;
2416;SDS011;1219;48.736;9.330;2023-03-14T00:45:04;0.90;;;0.90;;
2416;SDS011;1219;48.736;9.330;2023-03-14T00:47:32;2.37;;;0.90;;
2416;SDS011;1219;48.736;9.330;2023-03-14T00:49:58;0.80;;;0.80;;
2416;SDS011;1219;48.736;9.330;2023-03-14T00:52:24;1.10;;;1.00;;
2416;SDS011;1219;48.736;9.330;2023-03-14T00:54:50;1.00;;;1.00;;
2416;SDS011;1219;48.736;9.330;2023-03-14T00:57:16;1.00;;;1.00;;
2416;SDS011;1219;48.736;9.330;2023-03-14T00:59:42;3.00;;;1.10;;
2416;SDS011;1219;48.736;9.330;2023-03-14T01:02:08;1.47;;;1.13;;
2416;SDS011;1219;48.736;9.330;2023-03-14T01:04:34;1.60;;;0.90;;
2416;SDS011;1219;48.736;9.330;2023-03-14T01:07:01;0.90;;;0.90;;
2416;SDS011;1219;48.736;9.330;2023-03-14T01:09:27;0.93;;;0.90;;
2416;SDS011;1219;48.736;9.330;2023-03-14T01:11:53;1.00;;;0.90;;
2416;SDS011;1219;48.736;9.330;2023-03-14T01:14:19;1.83;;;1.00;;
2416;SDS011;1219;48.736;9.330;2023-03-14T01:16:45;2.20;;;0.90;;
2416;SDS011;1219;48.736;9.330;2023-03-14T01:19:11;1.10;;;1.00;;
2416;SDS011;1219;48.736;9.330;2023-03-14T01:21:37;2.67;;;1.30;;
2416;SDS011;1219;48.736;9.330;2023-03-14T01:24:04;5.67;;;1.23;;
2416;SDS011;1219;48.736;9.330;2023-03-14T01:26:31;1.10;;;0.97;;
2416;SDS011;1219;48.736;9.330;2023-03-14T01:28:58;1.40;;;1.00;;
2416;SDS011;1219;48.736;9.330;2023-03-14T01:31:25;1.90;;;0.90;;
2416;SDS011;1219;48.736;9.330;2023-03-14T01:33:51;0.93;;;0.93;;
2416;SDS011;1219;48.736;9.330;2023-03-14T01:36:17;1.33;;;1.10;;
2416;SDS011;1219;48.736;9.330;2023-03-14T01:38:44;2.23;;;1.87;;
2416;SDS011;1219;48.736;9.330;2023-03-14T01:41:20;4.40;;;1.30;;
2416;SDS011;1219;48.736;9.330;2023-03-14T01:43:47;6.70;;;3.30;;
2416;SDS011;1219;48.736;9.330;2023-03-14T01:46:19;5.87;;;1.33;;
2416;SDS011;1219;48.736;9.330;2023-03-14T01:51:13;1.53;;;1.43;;
2416;SDS011;1219;48.736;9.330;2023-03-14T01:53:40;1.47;;;1.37;;
2416;SDS011;1219;48.736;9.330;2023-03-14T01:56:07;1.30;;;1.20;;
2416;SDS011;1219;48.736;9.330;2023-03-14T01:58:36;1.10;;;1.00;;
2416;SDS011;1219;48.736;9.330;2023-03-14T02:01:02;1.00;;;1.00;;
2416;SDS011;1219;48.736;9.330;2023-03-14T02:03:29;1.83;;;1.23;;
2416;SDS011;1219;48.736;9.330;2023-03-14T02:05:56;0.90;;;0.90;;
2416;SDS011;1219;48.736;9.330;2023-03-14T02:08:25;1.10;;;0.97;;
2416;SDS011;1219;48.736;9.330;2023-03-14T02:10:53;3.37;;;0.90;;
2416;SDS011;1219;48.736;9.330;2023-03-14T02:13:19;1.00;;;1.00;;
2416;SDS011;1219;48.736;9.330;2023-03-14T02:15:47;0.80;;;0.80;;
2416;SDS011;1219;48.736;9.330;2023-03-14T02:18:13;1.10;;;1.00;;
2416;SDS011;1219;48.736;9.330;2023-03-14T02:20:51;1.37;;;1.00;;
2416;SDS011;1219;48.736;9.330;2023-03-14T02:23:32;0.87;;;0.87;;
2416;SDS011;1219;48.736;9.330;2023-03-14T02:26:08;0.80;;;0.80;;
2416;SDS011;1219;48.736;9.330;2023-03-14T02:28:34;1.60;;;0.90;;
2416;SDS011;1219;48.736;9.330;2023-03-14T02:31:00;0.80;;;0.80;;
2416;SDS011;1219;48.736;9.330;2023-03-14T02:33:26;0.90;;;0.80;;
2416;SDS011;1219;48.736;9.330;2023-03-14T02:35:53;0.90;;;0.90;;
2416;SDS011;1219;48.736;9.330;2023-03-14T02:38:33;0.90;;;0.80;;
2416;SDS011;1219;48.736;9.330;2023-03-14T02:41:00;1.10;;;1.00;;
2416;SDS011;1219;48.736;9.330;2023-03-14T02:43:27;0.90;;;0.90;;
2416;SDS011;1219;48.736;9.330;2023-03-14T02:45:53;1.00;;;0.90;;
2416;SDS011;1219;48.736;9.330;2023-03-14T02:48:21;0.90;;;0.90;;
2416;SDS011;1219;48.736;9.330;2023-03-14T02:50:48;1.13;;;1.00;;
2416;SDS011;1219;48.736;9.330;2023-03-14T02:53:16;1.20;;;0.90;;
2416;SDS011;1219;48.736;9.330;2023-03-14T02:55:47;2.80;;;0.93;;
2416;SDS011;1219;48.736;9.330;2023-03-14T02:58:13;1.00;;;0.90;;
2416;SDS011;1219;48.736;9.330;2023-03-14T03:00:39;0.80;;;0.80;;
2416;SDS011;1219;48.736;9.330;2023-03-14T03:03:05;0.93;;;0.93;;
2416;SDS011;1219;48.736;9.330;2023-03-14T03:05:32;2.30;;;1.00;;
2416;SDS011;1219;48.736;9.330;2023-03-14T03:07:58;1.00;;;0.90;;
2416;SDS011;1219;48.736;9.330;2023-03-14T03:10:24;1.00;;;1.00;;
2416;SDS011;1219;48.736;9.330;2023-03-14T03:12:50;1.10;;;1.00;;
2416;SDS011;1219;48.736;9.330;2023-03-14T03:15:16;0.90;;;0.90;;
2416;SDS011;1219;48.736;9.330;2023-03-14T03:17:42;0.80;;;0.80;;
2416;SDS011;1219;48.736;9.330;2023-03-14T03:20:08;1.20;;;1.10;;
2416;SDS011;1219;48.736;9.330;2023-03-14T03:22:35;1.00;;;1.00;;
2416;SDS011;1219;48.736;9.330;2023-03-14T03:25:02;0.90;;;0.90;;
2416;SDS011;1219;48.736;9.330;2023-03-14T03:27:29;1.10;;;1.03;;
2416;SDS011;1219;48.736;9.330;2023-03-14T03:29:56;2.70;;;1.20;;
2416;SDS011;1219;48.736;9.330;2023-03-14T03:32:22;1.00;;;1.00;;
2416;SDS011;1219;48.736;9.330;2023-03-14T03:34:48;1.00;;;1.00;;
2416;SDS011;1219;48.736;9.330;2023-03-14T03:37:14;1.30;;;1.10;;
2416;SDS011;1219;48.736;9.330;2023-03-14T03:39:40;1.00;;;1.00;;
2416;SDS011;1219;48.736;9.330;2023-03-14T03:42:06;2.67;;;1.20;;
2416;SDS011;1219;48.736;9.330;2023-03-14T03:44:32;1.20;;;1.10;;
2416;SDS011;1219;48.736;9.330;2023-03-14T03:46:58;1.20;;;1.20;;
2416;SDS011;1219;48.736;9.330;2023-03-14T03:49:24;1.20;;;1.10;;
2416;SDS011;1219;48.736;9.330;2023-03-14T03:51:53;1.00;;;1.00;;
2416;SDS011;1219;48.736;9.330;2023-03-14T03:54:19;1.20;;;1.10;;
2416;SDS011;1219;48.736;9.330;2023-03-14T03:56:45;1.00;;;1.00;;
2416;SDS011;1219;48.736;9.330;2023-03-14T03:59:11;1.30;;;1.20;;
2416;SDS011;1219;48.736;9.330;2023-03-14T04:01:43;3.17;;;1.20;;
2416;SDS011;1219;48.736;9.330;2023-03-14T04:04:09;1.50;;;1.40;;
2416;SDS011;1219;48.736;9.330;2023-03-14T04:06:35;1.40;;;1.30;;
2416;SDS011;1219;48.736;9.330;2023-03-14T04:09:01;3.80;;;1.40;;
2416;SDS011;1219;48.736;9.330;2023-03-14T04:11:27;1.30;;;1.20;;
2416;SDS011;1219;48.736;9.330;2023-03-14T04:13:52;1.20;;;1.10;;
2416;SDS011;1219;48.736;9.330;2023-03-14T04:16:20;1.30;;;1.20;;
2416;SDS011;1219;48.736;9.330;2023-03-14T04:18:46;1.20;;;1.10;;
2416;SDS011;1219;48.736;9.330;2023-03-14T04:21:12;1.30;;;1.20;;
2416;SDS011;1219;48.736;9.330;2023-03-14T04:23:38;1.40;;;1.30;;
2416;SDS011;1219;48.736;9.330;2023-03-14T04:26:04;4.30;;;1.30;;
2416;SDS011;1219;48.736;9.330;2023-03-14T04:28:30;1.30;;;1.20;;
2416;SDS011;1219;48.736;9.330;2023-03-14T04:30:56;3.67;;;1.40;;
2416;SDS011;1219;48.736;9.330;2023-03-14T04:33:22;1.60;;;1.50;;
2416;SDS011;1219;48.736;9.330;2023-03-14T04:35:48;1.57;;;1.40;;
2416;SDS011;1219;48.736;9.330;2023-03-14T04:38:15;2.03;;;1.20;;
2416;SDS011;1219;48.736;9.330;2023-03-14T04:40:41;1.40;;;1.30;;
2416;SDS011;1219;48.736;9.330;2023-03-14T04:43:08;1.70;;;1.60;;
2416;SDS011;1219;48.736;9.330;2023-03-14T04:45:34;1.93;;;1.83;;
2416;SDS011;1219;48.736;9.330;2023-03-14T04:48:04;1.97;;;1.30;;
2416;SDS011;1219;48.736;9.330;2023-03-14T04:50:33;1.67;;;1.57;;
2416;SDS011;1219;48.736;9.330;2023-03-14T04:52:59;1.50;;;1.30;;
2416;SDS011;1219;48.736;9.330;2023-03-14T04:55:25;1.30;;;1.20;;
2416;SDS011;1219;48.736;9.330;2023-03-14T04:57:51;1.30;;;1.20;;
2416;SDS011;1219;48.736;9.330;2023-03-14T05:00:17;1.67;;;1.47;;
2416;SDS011;1219;48.736;9.330;2023-03-14T05:02:43;1.40;;;1.30;;
2416;SDS011;1219;48.736;9.330;2023-03-14T05:05:09;1.70;;;1.40;;
2416;SDS011;1219;48.736;9.330;2023-03-14T05:07:35;1.70;;;1.40;;
2416;SDS011;1219;48.736;9.330;2023-03-14T05:10:02;3.73;;;1.20;;
2416;SDS011;1219;48.736;9.330;2023-03-14T05:12:28;1.50;;;1.40;;
2416;SDS011;1219;48.736;9.330;2023-03-14T05:14:54;4.17;;;1.40;;
2416;SDS011;1219;48.736;9.330;2023-03-14T05:17:20;2.03;;;1.80;;
2416;SDS011;1219;48.736;9.330;2023-03-14T05:19:46;2.40;;;1.50;;
2416;SDS011;1219;48.736;9.330;2023-03-14T05:22:12;1.70;;;1.60;;
2416;SDS011;1219;48.736;9.330;2023-03-14T05:24:38;1.40;;;1.30;;
2416;SDS011;1219;48.736;9.330;2023-03-14T05:27:04;1.50;;;1.40;;
2416;SDS011;1219;48.736;9.330;2023-03-14T05:29:30;2.13;;;1.50;;
2416;SDS011;1219;48.736;9.330;2023-03-14T05:31:56;1.60;;;1.50;;
2416;SDS011;1219;48.736;9.330;2023-03-14T05:34:22;1.80;;;1.60;;
2416;SDS011;1219;48.736;9.330;2023-03-14T05:36:48;1.50;;;1.40;;
2416;SDS011;1219;48.736;9.330;2023-03-14T05:39:14;1.43;;;1.33;;
2416;SDS011;1219;48.736;9.330;2023-03-14T05:41:42;1.40;;;1.30;;
2416;SDS011;1219;48.736;9.330;2023-03-14T05:44:08;1.40;;;1.30;;
2416;SDS011;1219;48.736;9.330;2023-03-14T05:46:34;1.77;;;1.40;;
2416;SDS011;1219;48.736;9.330;2023-03-14T05:49:00;4.67;;;1.93;;
2416;SDS011;1219;48.736;9.330;2023-03-14T05:51:26;5.03;;;1.80;;
2416;SDS011;1219;48.736;9.330;2023-03-14T05:53:52;3.27;;;1.63;;
2416;SDS011;1219;48.736;9.330;2023-03-14T05:56:18;4.07;;;1.43;;
2416;SDS011;1219;48.736;9.330;2023-03-14T05:58:44;2.10;;;1.40;;
2416;SDS011;1219;48.736;9.330;2023-03-14T06:01:10;4.57;;;2.97;;
2416;SDS011;1219;48.736;9.330;2023-03-14T06:03:36;22.83;;;16.63;;
2416;SDS011;1219;48.736;9.330;2023-03-14T06:06:02;13.73;;;11.87;;
2416;SDS011;1219;48.736;9.330;2023-03-14T06:08:28;5.17;;;4.70;;
2416;SDS011;1219;48.736;9.330;2023-03-14T06:10:54;4.83;;;3.00;;
2416;SDS011;1219;48.736;9.330;2023-03-14T06:13:20;3.57;;;2.47;;
2416;SDS011;1219;48.736;9.330;2023-03-14T06:15:46;2.80;;;2.13;;
2416;SDS011;1219;48.736;9.330;2023-03-14T06:18:12;1.90;;;1.80;;
2416;SDS011;1219;48.736;9.330;2023-03-14T06:20:39;3.90;;;1.70;;
2416;SDS011;1219;48.736;9.330;2023-03-14T06:23:05;1.63;;;1.53;;
2416;SDS011;1219;48.736;9.330;2023-03-14T06:25:32;1.63;;;1.53;;
2416;SDS011;1219;48.736;9.330;2023-03-14T06:27:58;3.33;;;1.50;;
2416;SDS011;1219;48.736;9.330;2023-03-14T06:30:24;1.67;;;1.57;;
2416;SDS011;1219;48.736;9.330;2023-03-14T06:32:50;2.63;;;1.43;;
2416;SDS011;1219;48.736;9.330;2023-03-14T06:35:15;2.90;;;1.57;;
2416;SDS011;1219;48.736;9.330;2023-03-14T06:37:42;1.70;;;1.60;;
2416;SDS011;1219;48.736;9.330;2023-03-14T06:40:11;2.50;;;1.80;;
2416;SDS011;1219;48.736;9.330;2023-03-14T06:42:45;6.20;;;1.40;;
2416;SDS011;1219;48.736;9.330;2023-03-14T06:45:11;3.30;;;1.63;;
2416;SDS011;1219;48.736;9.330;2023-03-14T06:47:37;1.53;;;1.37;;
2416;SDS011;1219;48.736;9.330;2023-03-14T06:50:04;1.50;;;1.40;;
2416;SDS011;1219;48.736;9.330;2023-03-14T06:52:30;1.50;;;1.40;;
2416;SDS011;1219;48.736;9.330;2023-03-14T06:54:56;1.63;;;1.53;;
2416;SDS011;1219;48.736;9.330;2023-03-14T06:57:22;1.73;;;1.60;;
2416;SDS011;1219;48.736;9.330;2023-03-14T06:59:48;2.03;;;1.60;;
2416;SDS011;1219;48.736;9.330;2023-03-14T07:02:14;2.30;;;1.87;;
2416;SDS011;1219;48.736;9.330;2023-03-14T07:04:40;1.80;;;1.70;;
2416;SDS011;1219;48.736;9.330;2023-03-14T07:07:06;3.13;;;1.70;;
2416;SDS011;1219;48.736;9.330;2023-03-14T07:09:32;3.30;;;1.60;;
2416;SDS011;1219;48.736;9.330;2023-03-14T07:11:58;3.47;;;1.60;;
2416;SDS011;1219;48.736;9.330;2023-03-14T07:14:25;1.90;;;1.70;;
2416;SDS011;1219;48.736;9.330;2023-03-14T07:16:51;3.03;;;1.77;;
2416;SDS011;1219;48.736;9.330;2023-03-14T07:19:17;2.50;;;1.53;;
2416;SDS011;1219;48.736;9.330;2023-03-14T07:21:43;3.00;;;1.73;;
2416;SDS011;1219;48.736;9.330;2023-03-14T07:24:09;2.23;;;1.60;;
2416;SDS011;1219;48.736;9.330;2023-03-14T07:26:35;1.70;;;1.60;;
2416;SDS011;1219;48.736;9.330;2023-03-14T07:29:01;7.07;;;1.80;;
2416;SDS011;1219;48.736;9.330;2023-03-14T07:31:28;1.50;;;1.40;;
2416;SDS011;1219;48.736;9.330;2023-03-14T07:33:54;2.00;;;1.90;;
2416;SDS011;1219;48.736;9.330;2023-03-14T07:36:20;2.70;;;1.53;;
2416;SDS011;1219;48.736;9.330;2023-03-14T07:38:46;4.23;;;1.80;;
2416;SDS011;1219;48.736;9.330;2023-03-14T07:41:12;2.03;;;1.50;;
2416;SDS011;1219;48.736;9.330;2023-03-14T07:43:39;1.93;;;1.63;;
2416;SDS011;1219;48.736;9.330;2023-03-14T07:46:05;3.10;;;1.67;;
2416;SDS011;1219;48.736;9.330;2023-03-14T07:48:31;1.50;;;1.40;;
2416;SDS011;1219;48.736;9.330;2023-03-14T07:50:57;2.10;;;1.33;;
2416;SDS011;1219;48.736;9.330;2023-03-14T07:53:23;4.10;;;1.53;;
2416;SDS011;1219;48.736;9.330;2023-03-14T07:55:52;1.83;;;1.73;;
2416;SDS011;1219;48.736;9.330;2023-03-14T07:58:19;1.70;;;1.60;;
2416;SDS011;1219;48.736;9.330;2023-03-14T08:00:46;2.27;;;1.93;;
2416;SDS011;1219;48.736;9.330;2023-03-14T08:03:12;3.60;;;1.97;;
2416;SDS011;1219;48.736;9.330;2023-03-14T08:05:39;5.33;;;2.10;;
2416;SDS011;1219;48.736;9.330;2023-03-14T08:08:06;1.80;;;1.70;;
2416;SDS011;1219;48.736;9.330;2023-03-14T08:10:32;1.63;;;1.53;;
2416;SDS011;1219;48.736;9.330;2023-03-14T08:12:58;5.07;;;1.60;;
2416;SDS011;1219;48.736;9.330;2023-03-14T08:15:25;3.37;;;1.30;;
2416;SDS011;1219;48.736;9.330;2023-03-14T08:17:52;6.03;;;1.60;;
2416;SDS011;1219;48.736;9.330;2023-03-14T08:20:19;2.03;;;1.40;;
2416;SDS011;1219;48.736;9.330;2023-03-14T08:22:45;1.43;;;1.33;;
2416;SDS011;1219;48.736;9.330;2023-03-14T08:25:11;2.33;;;1.50;;
2416;SDS011;1219;48.736;9.330;2023-03-14T08:27:37;1.43;;;1.33;;
2416;SDS011;1219;48.736;9.330;2023-03-14T08:30:07;4.03;;;1.30;;
2416;SDS011;1219;48.736;9.330;2023-03-14T08:32:33;3.80;;;1.80;;
2416;SDS011;1219;48.736;9.330;2023-03-14T08:34:59;1.80;;;1.70;;
2416;SDS011;1219;48.736;9.330;2023-03-14T08:37:25;4.10;;;1.40;;
2416;SDS011;1219;48.736;9.330;2023-03-14T08:39:52;1.37;;;1.27;;
2416;SDS011;1219;48.736;9.330;2023-03-14T08:42:18;6.20;;;1.40;;
2416;SDS011;1219;48.736;9.330;2023-03-14T08:44:44;3.03;;;1.50;;
2416;SDS011;1219;48.736;9.330;2023-03-14T08:47:10;3.07;;;1.60;;
2416;SDS011;1219;48.736;9.330;2023-03-14T08:49:36;1.60;;;1.50;;
2416;SDS011;1219;48.736;9.330;2023-03-14T08:52:03;1.30;;;1.10;;
2416;SDS011;1219;48.736;9.330;2023-03-14T08:54:29;1.97;;;1.33;;
2416;SDS011;1219;48.736;9.330;2023-03-14T08:56:55;3.20;;;1.20;;
2416;SDS011;1219;48.736;9.330;2023-03-14T08:59:21;3.13;;;1.20;;
2416;SDS011;1219;48.736;9.330;2023-03-14T09:01:47;1.30;;;1.20;;
2416;SDS011;1219;48.736;9.330;2023-03-14T09:04:13;1.20;;;1.10;;
2416;SDS011;1219;48.736;9.330;2023-03-14T09:06:39;1.13;;;1.10;;
2416;SDS011;1219;48.736;9.330;2023-03-14T09:09:05;1.67;;;1.20;;
2416;SDS011;1219;48.736;9.330;2023-03-14T09:11:31;1.10;;;1.10;;
2416;SDS011;1219;48.736;9.330;2023-03-14T09:13:57;1.03;;;1.00;;
2416;SDS011;1219;48.736;9.330;2023-03-14T09:16:23;1.03;;;1.00;;
2416;SDS011;1219;48.736;9.330;2023-03-14T09:18:49;0.90;;;0.90;;
2416;SDS011;1219;48.736;9.330;2023-03-14T09:21:18;1.13;;;0.80;;
2416;SDS011;1219;48.736;9.330;2023-03-14T09:23:44;1.10;;;1.00;;
2416;SDS011;1219;48.736;9.330;2023-03-14T09:26:10;1.00;;;1.00;;
2416;SDS011;1219;48.736;9.330;2023-03-14T09:28:36;0.93;;;0.90;;
2416;SDS011;1219;48.736;9.330;2023-03-14T09:31:09;3.30;;;0.93;;
2416;SDS011;1219;48.736;9.330;2023-03-14T09:33:36;1.23;;;1.13;;
2416;SDS011;1219;48.736;9.330;2023-03-14T09:36:02;1.00;;;1.00;;
2416;SDS011;1219;48.736;9.330;2023-03-14T09:38:29;1.30;;;0.93;;
2416;SDS011;1219;48.736;9.330;2023-03-14T09:40:55;1.00;;;1.00;;
2416;SDS011;1219;48.736;9.330;2023-03-14T09:43:23;2.60;;;0.80;;
2416;SDS011;1219;48.736;9.330;2023-03-14T09:45:50;0.80;;;0.80;;
2416;SDS011;1219;48.736;9.330;2023-03-14T09:48:19;1.67;;;0.90;;
2416;SDS011;1219;48.736;9.330;2023-03-14T09:50:47;0.80;;;0.80;;
2416;SDS011;1219;48.736;9.330;2023-03-14T09:53:14;1.00;;;0.90;;
2416;SDS011;1219;48.736;9.330;2023-03-14T09:55:42;0.90;;;0.90;;
2416;SDS011;1219;48.736;9.330;2023-03-14T09:58:09;1.37;;;0.80;;
2416;SDS011;1219;48.736;9.330;2023-03-14T10:00:36;3.50;;;0.90;;
2416;SDS011;1219;48.736;9.330;2023-03-14T10:05:38;1.30;;;1.10;;
2416;SDS011;1219;48.736;9.330;2023-03-14T10:08:04;2.10;;;1.07;;
2416;SDS011;1219;48.736;9.330;2023-03-14T10:10:30;0.97;;;0.80;;
2416;SDS011;1219;48.736;9.330;2023-03-14T10:15:32;1.00;;;1.00;;
2416;SDS011;1219;48.736;9.330;2023-03-14T10:18:02;1.20;;;1.10;;
2416;SDS011;1219;48.736;9.330;2023-03-14T10:20:33;1.30;;;1.30;;
2416;SDS011;1219;48.736;9.330;2023-03-14T10:23:06;1.40;;;1.30;;
2416;SDS011;1219;48.736;9.330;2023-03-14T10:25:37;4.47;;;3.07;;
2416;SDS011;1219;48.736;9.330;2023-03-14T10:28:03;3.37;;;2.13;;
2416;SDS011;1219;48.736;9.330;2023-03-14T10:30:40;6.10;;;2.70;;
2416;SDS011;1219;48.736;9.330;2023-03-14T10:35:44;1.20;;;1.00;;
2416;SDS011;1219;48.736;9.330;2023-03-14T10:38:14;0.90;;;0.90;;
2416;SDS011;1219;48.736;9.330;2023-03-14T10:40:46;1.83;;;0.93;;
2416;SDS011;1219;48.736;9.330;2023-03-14T10:43:15;1.60;;;1.50;;
2416;SDS011;1219;48.736;9.330;2023-03-14T10:45:44;1.10;;;1.00;;
2416;SDS011;1219;48.736;9.330;2023-03-14T10:50:50;1.37;;;0.90;;
2416;SDS011;1219;48.736;9.330;2023-03-14T10:53:18;0.80;;;0.80;;
2416;SDS011;1219;48.736;9.330;2023-03-14T10:55:44;0.87;;;0.87;;
2416;SDS011;1219;48.736;9.330;2023-03-14T10:58:18;0.80;;;0.80;;
2416;SDS011;1219;48.736;9.330;2023-03-14T11:00:45;1.40;;;1.03;;
2416;SDS011;1219;48.736;9.330;2023-03-14T11:03:14;1.00;;;0.90;;
2416;SDS011;1219;48.736;9.330;2023-03-14T11:06:43;1.03;;;0.90;;
2416;SDS011;1219;48.736;9.330;2023-03-14T11:09:00;0.80;;;0.80;;
2416;SDS011;1219;48.736;9.330;2023-03-14T11:11:23;0.90;;;0.90;;
2416;SDS011;1219;48.736;9.330;2023-03-14T11:13:59;0.70;;;0.70;;
2416;SDS011;1219;48.736;9.330;2023-03-14T11:16:35;1.33;;;0.90;;
2416;SDS011;1219;48.736;9.330;2023-03-14T11:21:45;1.00;;;1.00;;
2416;SDS011;1219;48.736;9.330;2023-03-14T11:24:23;2.60;;;1.40;;
2416;SDS011;1219;48.736;9.330;2023-03-14T11:26:59;1.10;;;1.10;;
2416;SDS011;1219;48.736;9.330;2023-03-14T11:32:02;1.20;;;1.10;;
2416;SDS011;1219;48.736;9.330;2023-03-14T11:36:59;1.20;;;1.20;;
2416;SDS011;1219;48.736;9.330;2023-03-14T11:39:29;1.23;;;1.10;;
2416;SDS011;1219;48.736;9.330;2023-03-14T11:41:57;1.10;;;1.10;;
2416;SDS011;1219;48.736;9.330;2023-03-14T11:44:34;1.10;;;1.10;;
2416;SDS011;1219;48.736;9.330;2023-03-14T11:47:04;0.97;;;0.97;;
2416;SDS011;1219;48.736;9.330;2023-03-14T11:51:59;1.10;;;1.10;;
2416;SDS011;1219;48.736;9.330;2023-03-14T11:54:34;1.13;;;1.13;;
2416;SDS011;1219;48.736;9.330;2023-03-14T11:57:03;1.23;;;1.23;;
2416;SDS011;1219;48.736;9.330;2023-03-14T12:01:57;1.03;;;1.03;;
2416;SDS011;1219;48.736;9.330;2023-03-14T12:04:31;1.60;;;1.50;;
2416;SDS011;1219;48.736;9.330;2023-03-14T12:06:57;1.10;;;1.00;;
2416;SDS011;1219;48.736;9.330;2023-03-14T12:09:28;1.00;;;1.00;;
2416;SDS011;1219;48.736;9.330;2023-03-14T12:11:56;1.30;;;1.20;;
2416;SDS011;1219;48.736;9.330;2023-03-14T12:14:23;1.00;;;1.00;;
2416;SDS011;1219;48.736;9.330;2023-03-14T12:16:53;1.47;;;1.37;;
2416;SDS011;1219;48.736;9.330;2023-03-14T12:21:49;1.10;;;1.10;;
2416;SDS011;1219;48.736;9.330;2023-03-14T12:24:20;1.13;;;1.13;;
2416;SDS011;1219;48.736;9.330;2023-03-14T12:26:52;1.33;;;1.10;;
2416;SDS011;1219;48.736;9.330;2023-03-14T12:29:19;1.20;;;1.20;;
2416;SDS011;1219;48.736;9.330;2023-03-14T12:31:46;1.50;;;1.40;;
2416;SDS011;1219;48.736;9.330;2023-03-14T12:47:39;1.20;;;1.10;;
2416;SDS011;1219;48.736;9.330;2023-03-14T12:49:46;1.43;;;1.33;;
2416;SDS011;1219;48.736;9.330;2023-03-14T12:59:58;1.20;;;1.20;;
2416;SDS011;1219;48.736;9.330;2023-03-14T13:02:26;1.00;;;1.00;;
2416;SDS011;1219;48.736;9.330;2023-03-14T13:05:04;1.90;;;1.80;;
2416;SDS011;1219;48.736;9.330;2023-03-14T13:10:19;1.77;;;1.67;;
2416;SDS011;1219;48.736;9.330;2023-03-14T13:12:50;1.10;;;1.10;;
2416;SDS011;1219;48.736;9.330;2023-03-14T13:15:21;1.13;;;1.07;;
2416;SDS011;1219;48.736;9.330;2023-03-14T13:17:48;2.40;;;1.13;;
2416;SDS011;1219;48.736;9.330;2023-03-14T13:20:36;1.07;;;1.07;;
2416;SDS011;1219;48.736;9.330;2023-03-14T13:23:01;3.27;;;1.20;;
2416;SDS011;1219;48.736;9.330;2023-03-14T13:25:32;1.20;;;1.10;;
2416;SDS011;1219;48.736;9.330;2023-03-14T13:27:58;0.93;;;0.93;;
2416;SDS011;1219;48.736;9.330;2023-03-14T13:30:27;1.00;;;1.00;;
2416;SDS011;1219;48.736;9.330;2023-03-14T13:32:54;1.00;;;1.00;;
2416;SDS011;1219;48.736;9.330;2023-03-14T13:35:21;1.53;;;1.10;;
2416;SDS011;1219;48.736;9.330;2023-03-14T13:37:51;1.20;;;1.20;;
2416;SDS011;1219;48.736;9.330;2023-03-14T13:40:24;1.40;;;1.17;;
2416;SDS011;1219;48.736;9.330;2023-03-14T13:42:59;1.67;;;1.57;;
2416;SDS011;1219;48.736;9.330;2023-03-14T13:45:25;2.40;;;1.70;;
2416;SDS011;1219;48.736;9.330;2023-03-14T13:47:51;1.20;;;1.20;;
2416;SDS011;1219;48.736;9.330;2023-03-14T13:50:17;1.40;;;1.30;;
2416;SDS011;1219;48.736;9.330;2023-03-14T13:52:44;1.40;;;1.30;;
2416;SDS011;1219;48.736;9.330;2023-03-14T13:55:17;1.00;;;1.00;;
2416;SDS011;1219;48.736;9.330;2023-03-14T13:57:44;1.10;;;1.10;;
2416;SDS011;1219;48.736;9.330;2023-03-14T14:00:17;1.33;;;1.23;;
2416;SDS011;1219;48.736;9.330;2023-03-14T14:02:44;1.70;;;1.60;;
2416;SDS011;1219;48.736;9.330;2023-03-14T14:05:10;1.00;;;1.00;;
2416;SDS011;1219;48.736;9.330;2023-03-14T14:07:36;1.57;;;1.30;;
2416;SDS011;1219;48.736;9.330;2023-03-14T14:10:03;1.10;;;1.10;;
2416;SDS011;1219;48.736;9.330;2023-03-14T14:12:30;1.10;;;1.10;;
2416;SDS011;1219;48.736;9.330;2023-03-14T14:14:59;1.20;;;1.10;;
2416;SDS011;1219;48.736;9.330;2023-03-14T14:17:34;2.40;;;1.30;;
2416;SDS011;1219;48.736;9.330;2023-03-14T14:20:02;1.10;;;1.10;;
2416;SDS011;1219;48.736;9.330;2023-03-14T14:22:30;1.00;;;1.00;;
2416;SDS011;1219;48.736;9.330;2023-03-14T14:24:56;1.80;;;1.30;;
2416;SDS011;1219;48.736;9.330;2023-03-14T14:27:38;1.13;;;1.13;;
2416;SDS011;1219;48.736;9.330;2023-03-14T14:30:24;1.60;;;1.50;;
2416;SDS011;1219;48.736;9.330;2023-03-14T14:32:50;2.87;;;1.70;;
2416;SDS011;1219;48.736;9.330;2023-03-14T14:35:24;2.47;;;1.47;;
2416;SDS011;1219;48.736;9.330;2023-03-14T14:37:50;1.57;;;1.47;;
2416;SDS011;1219;48.736;9.330;2023-03-14T14:40:21;1.13;;;1.13;;
2416;SDS011;1219;48.736;9.330;2023-03-14T14:42:47;1.00;;;1.00;;
2416;SDS011;1219;48.736;9.330;2023-03-14T14:45:17;1.30;;;1.30;;
2416;SDS011;1219;48.736;9.330;2023-03-14T14:47:53;2.30;;;1.40;;
2416;SDS011;1219;48.736;9.330;2023-03-14T14:50:33;1.20;;;1.20;;
2416;SDS011;1219;48.736;9.330;2023-03-14T14:53:00;1.23;;;1.23;;
2416;SDS011;1219;48.736;9.330;2023-03-14T14:55:33;1.20;;;1.20;;
2416;SDS011;1219;48.736;9.330;2023-03-14T14:58:11;1.33;;;1.23;;
2416;SDS011;1219;48.736;9.330;2023-03-14T15:00:39;1.10;;;1.10;;
2416;SDS011;1219;48.736;9.330;2023-03-14T15:03:05;1.47;;;1.40;;
2416;SDS011;1219;48.736;9.330;2023-03-14T15:05:31;1.30;;;1.20;;
2416;SDS011;1219;48.736;9.330;2023-03-14T15:08:00;1.40;;;1.30;;
2416;SDS011;1219;48.736;9.330;2023-03-14T15:10:26;4.13;;;1.93;;
2416;SDS011;1219;48.736;9.330;2023-03-14T15:12:53;1.70;;;1.60;;
2416;SDS011;1219;48.736;9.330;2023-03-14T15:15:19;1.50;;;1.40;;
2416;SDS011;1219;48.736;9.330;2023-03-14T15:17:45;1.53;;;1.43;;
2416;SDS011;1219;48.736;9.330;2023-03-14T15:20:12;1.00;;;1.00;;
2416;SDS011;1219;48.736;9.330;2023-03-14T15:22:38;1.13;;;1.10;;
2416;SDS011;1219;48.736;9.330;2023-03-14T15:25:04;0.93;;;0.93;;
2416;SDS011;1219;48.736;9.330;2023-03-14T15:27:31;1.40;;;1.30;;
2416;SDS011;1219;48.736;9.330;2023-03-14T15:29:57;6.77;;;1.20;;
2416;SDS011;1219;48.736;9.330;2023-03-14T15:32:24;1.67;;;1.57;;
2416;SDS011;1219;48.736;9.330;2023-03-14T15:34:52;1.10;;;1.10;;
2416;SDS011;1219;48.736;9.330;2023-03-14T15:37:18;1.10;;;1.10;;
2416;SDS011;1219;48.736;9.330;2023-03-14T15:39:44;1.20;;;1.20;;
2416;SDS011;1219;48.736;9.330;2023-03-14T15:42:10;2.20;;;1.50;;
2416;SDS011;1219;48.736;9.330;2023-03-14T15:44:38;13.80;;;1.67;;
2416;SDS011;1219;48.736;9.330;2023-03-14T15:47:04;1.10;;;1.10;;
2416;SDS011;1219;48.736;9.330;2023-03-14T15:49:31;2.23;;;1.20;;
2416;SDS011;1219;48.736;9.330;2023-03-14T15:51:57;1.30;;;1.20;;
2416;SDS011;1219;48.736;9.330;2023-03-14T15:54:23;1.00;;;1.00;;
2416;SDS011;1219;48.736;9.330;2023-03-14T15:56:53;1.00;;;1.00;;
2416;SDS011;1219;48.736;9.330;2023-03-14T15:59:19;2.10;;;1.70;;
2416;SDS011;1219;48.736;9.330;2023-03-14T16:01:45;1.67;;;1.20;;
2416;SDS011;1219;48.736;9.330;2023-03-14T16:04:13;1.57;;;1.47;;
2416;SDS011;1219;48.736;9.330;2023-03-14T16:06:39;0.90;;;0.90;;
2416;SDS011;1219;48.736;9.330;2023-03-14T16:09:06;1.20;;;1.10;;